createdAt,value
2023-03-26T00:00:18.140Z,2.00
2023-03-26T00:02:48.581Z,1.60
2023-03-26T00:05:18.997Z,1.90
2023-03-26T00:07:49.688Z,1.40
2023-03-26T00:10:20.724Z,1.50
2023-03-26T00:12:51.051Z,1.00
2023-03-26T00:15:21.477Z,1.40
2023-03-26T00:17:54.328Z,1.10
2023-03-26T00:20:27.387Z,1.30
2023-03-26T00:22:58.114Z,1.00
2023-03-26T00:25:28.543Z,1.10
2023-03-26T00:27:58.868Z,1.30
2023-03-26T00:30:29.311Z,1.20
2023-03-26T00:33:00.063Z,1.20
2023-03-26T00:35:31.320Z,1.50
2023-03-26T00:38:02.207Z,1.30
2023-03-26T00:40:36.765Z,1.50
2023-03-26T00:43:19.460Z,1.60
2023-03-26T00:45:53.209Z,1.80
2023-03-26T00:48:34.209Z,1.60
2023-03-26T00:51:15.542Z,1.60
2023-03-26T00:53:49.120Z,1.50
2023-03-26T00:56:20.238Z,1.80
2023-03-26T00:58:51.301Z,1.50
2023-03-26T01:01:27.927Z,1.80
2023-03-26T01:04:18.585Z,1.60
2023-03-26T01:06:49.221Z,1.80
2023-03-26T01:09:22.038Z,1.50
2023-03-26T01:11:52.744Z,1.90
2023-03-26T01:14:26.870Z,1.70
2023-03-26T01:16:59.698Z,1.60
2023-03-26T01:19:38.099Z,1.90
2023-03-26T01:22:11.221Z,1.70
2023-03-26T01:24:42.463Z,1.80
2023-03-26T01:27:25.879Z,1.90
2023-03-26T01:30:04.865Z,2.00
2023-03-26T01:32:51.393Z,1.70
2023-03-26T01:35:31.771Z,1.90
2023-03-26T01:38:15.106Z,1.80
2023-03-26T01:40:51.438Z,1.30
2023-03-26T01:43:29.664Z,1.70
2023-03-26T01:46:03.764Z,1.70
2023-03-26T01:48:39.051Z,1.60
2023-03-26T01:51:10.858Z,1.80
2023-03-26T01:53:46.094Z,1.80
2023-03-26T01:56:26.624Z,1.50
2023-03-26T01:59:10.869Z,1.60
2023-03-26T02:01:54.854Z,1.70
2023-03-26T02:04:31.690Z,2.10
2023-03-26T02:07:09.319Z,1.80
2023-03-26T02:09:45.741Z,1.80
2023-03-26T02:12:17.432Z,2.50
2023-03-26T02:14:48.249Z,2.10
2023-03-26T02:17:19.313Z,2.00
2023-03-26T02:19:49.695Z,2.10
2023-03-26T02:22:21.074Z,2.30
2023-03-26T02:24:51.402Z,2.60
2023-03-26T02:27:22.043Z,2.10
2023-03-26T02:29:52.700Z,2.40
2023-03-26T02:32:25.841Z,2.60
2023-03-26T02:34:57.747Z,1.80
2023-03-26T02:37:30.508Z,1.60
2023-03-26T02:40:11.127Z,2.00
2023-03-26T02:42:42.630Z,1.70
2023-03-26T02:45:13.425Z,1.90
2023-03-26T02:48:16.200Z,1.50
2023-03-26T02:51:09.579Z,1.50
2023-03-26T02:54:12.399Z,1.40
2023-03-26T02:56:56.272Z,1.60
2023-03-26T02:59:46.955Z,1.80
2023-03-26T03:02:40.417Z,2.00
2023-03-26T03:05:31.555Z,2.20
2023-03-26T03:08:21.520Z,1.70
2023-03-26T03:11:05.054Z,2.10
2023-03-26T03:13:43.276Z,1.70
2023-03-26T03:16:13.709Z,1.80
2023-03-26T03:18:44.086Z,2.00
2023-03-26T03:21:14.565Z,2.20
2023-03-26T03:23:44.890Z,2.00
2023-03-26T03:26:21.680Z,2.20
2023-03-26T03:28:57.721Z,1.60
2023-03-26T03:31:29.253Z,2.00
2023-03-26T03:34:04.719Z,1.60
2023-03-26T03:36:38.581Z,2.20
2023-03-26T03:39:20.770Z,1.70
2023-03-26T03:41:51.268Z,2.00
2023-03-26T03:44:21.974Z,1.60
2023-03-26T03:46:54.158Z,1.40
2023-03-26T03:49:24.940Z,1.60
2023-03-26T03:51:55.476Z,1.40
2023-03-26T03:54:31.202Z,1.50
2023-03-26T03:57:22.033Z,1.40
2023-03-26T04:00:08.932Z,1.00
2023-03-26T04:02:49.881Z,1.00
2023-03-26T04:05:20.332Z,1.00
2023-03-26T04:07:51.642Z,1.00
2023-03-26T04:10:38.697Z,0.90
2023-03-26T04:13:11.518Z,0.80
2023-03-26T04:15:55.206Z,0.80
2023-03-26T04:18:27.778Z,0.90
2023-03-26T04:21:02.600Z,1.30
2023-03-26T04:23:34.810Z,0.70
2023-03-26T04:26:16.286Z,0.90
2023-03-26T04:29:17.398Z,1.00
2023-03-26T04:31:58.779Z,1.00
2023-03-26T04:34:30.009Z,0.80
2023-03-26T04:37:24.591Z,0.80
2023-03-26T04:40:09.564Z,1.00
2023-03-26T04:42:46.366Z,1.20
2023-03-26T04:45:30.352Z,0.70
2023-03-26T04:48:02.428Z,1.10
2023-03-26T04:50:33.118Z,0.80
2023-03-26T04:53:04.903Z,1.00
2023-03-26T04:56:01.507Z,0.80
2023-03-26T04:59:04.619Z,0.70
2023-03-26T05:01:40.178Z,0.80
2023-03-26T05:04:11.371Z,0.70
2023-03-26T05:06:43.027Z,0.70
2023-03-26T05:09:22.238Z,0.50
2023-03-26T05:12:13.683Z,0.50
2023-03-26T05:15:00.837Z,0.40
2023-03-26T05:17:42.800Z,0.60
2023-03-26T05:20:22.168Z,0.60
2023-03-26T05:22:53.187Z,0.70
2023-03-26T05:25:27.886Z,0.60
2023-03-26T05:27:58.537Z,0.60
2023-03-26T05:30:33.589Z,0.60
2023-03-26T05:33:04.668Z,0.60
2023-03-26T05:35:43.568Z,0.70
2023-03-26T05:38:14.261Z,0.60
2023-03-26T05:40:44.632Z,0.40
2023-03-26T05:43:23.936Z,0.50
2023-03-26T05:46:10.630Z,0.40
2023-03-26T05:48:41.249Z,0.50
2023-03-26T05:51:12.437Z,0.70
2023-03-26T05:53:45.268Z,0.60
2023-03-26T05:56:34.369Z,0.50
2023-03-26T05:59:30.422Z,0.70
2023-03-26T06:02:19.342Z,0.70
2023-03-26T06:05:15.659Z,0.70
2023-03-26T06:07:57.581Z,0.70
2023-03-26T06:10:34.991Z,0.70
2023-03-26T06:13:06.240Z,0.90
2023-03-26T06:15:39.235Z,1.10
2023-03-26T06:18:24.825Z,0.90
2023-03-26T06:21:14.010Z,0.90
2023-03-26T06:23:51.612Z,0.90
2023-03-26T06:26:54.298Z,0.90
2023-03-26T06:29:43.652Z,0.90
2023-03-26T06:32:34.728Z,1.20
2023-03-26T06:35:11.751Z,1.00
2023-03-26T06:37:42.466Z,0.90
2023-03-26T06:40:15.807Z,1.10
2023-03-26T06:43:18.831Z,1.20
2023-03-26T06:46:08.686Z,0.80
2023-03-26T06:48:43.044Z,1.00
2023-03-26T06:51:32.152Z,1.00
2023-03-26T06:54:11.363Z,0.70
2023-03-26T06:56:48.260Z,0.70
2023-03-26T06:59:41.709Z,0.90
2023-03-26T07:02:31.136Z,1.00
2023-03-26T07:05:41.525Z,1.00
2023-03-26T07:08:14.495Z,0.90
2023-03-26T07:11:03.361Z,0.90
2023-03-26T07:13:56.854Z,1.00
2023-03-26T07:16:50.372Z,1.00
2023-03-26T07:19:41.042Z,0.80
2023-03-26T07:22:16.767Z,0.60
2023-03-26T07:25:07.993Z,0.80
2023-03-26T07:28:07.229Z,0.80
2023-03-26T07:31:22.548Z,0.60
2023-03-26T07:34:09.159Z,0.60
2023-03-26T07:36:53.465Z,0.70
2023-03-26T07:39:53.067Z,0.70
2023-03-26T07:42:44.596Z,0.70
2023-03-26T07:45:39.762Z,0.70
2023-03-26T07:48:40.964Z,0.90
2023-03-26T07:51:35.275Z,1.00
2023-03-26T07:54:15.408Z,0.90
2023-03-26T07:57:36.786Z,0.60
2023-03-26T08:00:36.845Z,0.70
2023-03-26T08:03:36.028Z,0.70
2023-03-26T08:06:35.264Z,1.00
2023-03-26T08:09:30.830Z,0.90
2023-03-26T08:12:31.988Z,0.90
2023-03-26T08:15:12.482Z,0.90
2023-03-26T08:17:47.634Z,1.00
2023-03-26T08:20:32.582Z,0.90
2023-03-26T08:23:10.133Z,0.90
2023-03-26T08:25:53.185Z,1.00
2023-03-26T08:28:38.029Z,1.00
2023-03-26T08:31:11.257Z,0.80
2023-03-26T08:33:41.978Z,0.80
2023-03-26T08:36:13.335Z,0.80
2023-03-26T08:38:45.128Z,0.70
2023-03-26T08:41:48.750Z,0.70
2023-03-26T08:45:07.120Z,0.60
2023-03-26T08:48:17.487Z,0.80
2023-03-26T08:51:16.999Z,0.70
2023-03-26T08:54:18.684Z,0.80
2023-03-26T08:57:00.389Z,0.70
2023-03-26T09:00:05.946Z,0.80
2023-03-26T09:02:56.911Z,0.70
2023-03-26T09:05:47.034Z,0.90
2023-03-26T09:08:59.718Z,0.70
2023-03-26T09:12:09.371Z,0.70
2023-03-26T09:15:02.314Z,0.80
2023-03-26T09:18:23.880Z,0.70
2023-03-26T09:21:33.343Z,0.70
2023-03-26T09:24:25.498Z,0.80
2023-03-26T09:27:09.099Z,0.70
2023-03-26T09:30:10.104Z,1.00
2023-03-26T09:33:06.600Z,0.80
2023-03-26T09:35:52.859Z,0.70
2023-03-26T09:38:44.034Z,0.70
2023-03-26T09:41:25.338Z,0.80
2023-03-26T09:44:36.567Z,0.70
2023-03-26T09:47:39.350Z,0.80
2023-03-26T09:50:31.024Z,0.90
2023-03-26T09:53:24.070Z,0.80
2023-03-26T09:56:05.788Z,0.80
2023-03-26T09:59:00.431Z,0.60
2023-03-26T10:01:40.651Z,0.90
2023-03-26T10:04:38.503Z,0.90
2023-03-26T10:07:23.235Z,1.10
2023-03-26T10:10:02.403Z,0.70
2023-03-26T10:12:40.674Z,0.70
2023-03-26T10:15:32.406Z,0.70
2023-03-26T10:18:27.061Z,0.80
2023-03-26T10:21:06.224Z,0.70
2023-03-26T10:23:53.934Z,0.80
2023-03-26T10:26:39.322Z,0.70
2023-03-26T10:29:31.079Z,0.60
2023-03-26T10:32:17.245Z,0.60
2023-03-26T10:34:57.822Z,0.80
2023-03-26T10:37:42.527Z,0.70
2023-03-26T10:40:33.449Z,0.70
2023-03-26T10:43:29.400Z,0.80
2023-03-26T10:46:36.085Z,1.00
2023-03-26T10:49:52.262Z,0.90
2023-03-26T10:52:26.167Z,1.20
2023-03-26T10:55:12.148Z,1.10
2023-03-26T10:57:50.415Z,1.00
2023-03-26T11:00:25.281Z,1.00
2023-03-26T11:03:24.234Z,0.90
2023-03-26T11:06:03.950Z,1.10
2023-03-26T11:08:43.822Z,1.00
2023-03-26T11:11:24.885Z,1.10
2023-03-26T11:14:04.762Z,0.90
2023-03-26T11:16:50.077Z,1.00
2023-03-26T11:19:28.763Z,0.70
2023-03-26T11:22:07.010Z,0.70
2023-03-26T11:24:53.151Z,0.80
2023-03-26T11:27:36.373Z,0.80
2023-03-26T11:30:19.185Z,0.90
2023-03-26T11:32:52.922Z,0.80
2023-03-26T11:35:40.482Z,0.70
2023-03-26T11:38:20.945Z,0.70
2023-03-26T11:40:55.389Z,0.80
2023-03-26T11:46:23.350Z,1.00
2023-03-26T11:48:59.465Z,0.90
2023-03-26T11:51:34.829Z,1.00
2023-03-26T11:54:07.947Z,1.30
2023-03-26T11:57:05.526Z,1.00
2023-03-26T11:59:49.054Z,1.30
2023-03-26T12:02:34.016Z,1.10
2023-03-26T12:05:15.814Z,1.60
2023-03-26T12:07:51.333Z,1.20
2023-03-26T12:10:28.311Z,1.30
2023-03-26T12:13:02.942Z,1.30
2023-03-26T12:15:33.555Z,1.40
2023-03-26T12:18:25.080Z,1.10
2023-03-26T12:21:08.300Z,1.30
2023-03-26T12:23:52.497Z,1.20
2023-03-26T12:26:33.982Z,1.30
2023-03-26T12:29:11.804Z,1.10
2023-03-26T12:31:50.714Z,1.00
2023-03-26T12:34:24.192Z,0.90
2023-03-26T12:36:56.555Z,1.10
2023-03-26T12:40:07.330Z,0.60
2023-03-26T12:45:21.047Z,0.80
2023-03-26T12:48:00.800Z,1.10
2023-03-26T12:50:47.597Z,0.60
2023-03-26T12:53:30.808Z,0.80
2023-03-26T12:56:09.371Z,0.90
2023-03-26T12:58:59.466Z,0.80
2023-03-26T13:01:41.958Z,0.90
2023-03-26T13:04:35.550Z,1.10
2023-03-26T13:07:16.859Z,0.80
2023-03-26T13:10:08.505Z,0.90
2023-03-26T13:12:48.240Z,0.80
2023-03-26T13:15:28.945Z,1.40
2023-03-26T13:18:16.589Z,0.80
2023-03-26T13:21:00.604Z,0.70
2023-03-26T13:23:40.269Z,0.60
2023-03-26T13:26:19.551Z,0.80
2023-03-26T13:28:57.761Z,0.90
2023-03-26T13:31:33.055Z,0.90
2023-03-26T13:34:12.643Z,0.70
2023-03-26T13:36:54.564Z,0.80
2023-03-26T13:39:36.878Z,1.00
2023-03-26T13:42:27.033Z,1.30
2023-03-26T13:45:07.070Z,0.90
2023-03-26T13:47:45.433Z,0.90
2023-03-26T13:50:24.834Z,0.90
2023-03-26T13:53:02.188Z,0.90
2023-03-26T13:55:37.515Z,0.80
2023-03-26T13:58:18.232Z,0.70
2023-03-26T14:00:59.232Z,1.00
2023-03-26T14:03:38.994Z,0.80
2023-03-26T14:06:18.912Z,1.00
2023-03-26T14:08:57.409Z,0.90
2023-03-26T14:11:41.003Z,1.00
2023-03-26T14:14:15.954Z,0.90
2023-03-26T14:16:52.022Z,1.10
2023-03-26T14:19:45.255Z,1.10
2023-03-26T14:22:28.823Z,0.70
2023-03-26T14:25:14.397Z,0.80
2023-03-26T14:27:58.720Z,0.90
2023-03-26T14:31:12.461Z,0.90
2023-03-26T14:34:07.216Z,0.90
2023-03-26T14:37:00.101Z,0.80
2023-03-26T14:40:02.570Z,0.90
2023-03-26T14:42:42.806Z,1.00
2023-03-26T14:45:46.553Z,1.30
2023-03-26T14:48:37.775Z,1.20
2023-03-26T14:51:31.463Z,1.40
2023-03-26T14:54:06.829Z,1.10
2023-03-26T14:57:00.932Z,0.90
2023-03-26T15:00:02.185Z,1.30
2023-03-26T15:03:09.351Z,0.90
2023-03-26T15:06:09.865Z,1.10
2023-03-26T15:09:20.425Z,1.20
2023-03-26T15:12:12.734Z,1.10
2023-03-26T15:15:13.812Z,1.00
2023-03-26T15:18:09.007Z,1.00
2023-03-26T15:21:19.389Z,1.00
2023-03-26T15:24:16.465Z,0.90
2023-03-26T15:27:20.344Z,1.00
2023-03-26T15:30:22.991Z,1.00
2023-03-26T15:33:19.382Z,0.90
2023-03-26T15:36:13.988Z,1.00
2023-03-26T15:39:07.790Z,1.00
2023-03-26T15:41:47.074Z,0.80
2023-03-26T15:44:54.046Z,1.00
2023-03-26T15:47:55.428Z,1.10
2023-03-26T15:50:38.757Z,0.90
2023-03-26T15:53:19.777Z,0.80
2023-03-26T15:56:07.997Z,0.70
2023-03-26T15:58:50.454Z,0.60
2023-03-26T16:01:39.501Z,0.60
2023-03-26T16:04:22.217Z,0.50
2023-03-26T16:07:02.905Z,0.80
2023-03-26T16:09:56.403Z,0.80
2023-03-26T16:12:38.786Z,0.80
2023-03-26T16:15:29.544Z,0.80
2023-03-26T16:18:37.245Z,1.00
2023-03-26T16:21:53.697Z,0.60
2023-03-26T16:24:32.005Z,0.50
2023-03-26T16:27:27.170Z,0.60
2023-03-26T16:30:27.404Z,0.50
2023-03-26T16:33:05.345Z,0.60
2023-03-26T16:36:05.323Z,0.60
2023-03-26T16:38:54.826Z,0.60
2023-03-26T16:41:28.136Z,0.50
2023-03-26T16:44:18.410Z,0.50
2023-03-26T16:47:00.916Z,0.40
2023-03-26T16:49:47.081Z,0.40
2023-03-26T16:52:48.435Z,0.40
2023-03-26T16:55:24.464Z,0.30
2023-03-26T16:58:05.726Z,0.50
2023-03-26T17:00:48.697Z,0.40
2023-03-26T17:03:45.857Z,0.50
2023-03-26T17:06:28.256Z,0.70
2023-03-26T17:09:06.997Z,0.50
2023-03-26T17:11:53.132Z,0.60
2023-03-26T17:14:39.728Z,1.00
2023-03-26T17:17:31.315Z,1.20
2023-03-26T17:20:11.757Z,1.50
2023-03-26T17:22:59.598Z,2.10
2023-03-26T17:25:37.314Z,2.20
2023-03-26T17:28:41.179Z,2.40
2023-03-26T17:31:24.810Z,2.00
2023-03-26T17:33:55.690Z,2.20
2023-03-26T17:36:41.981Z,2.90
2023-03-26T17:39:48.650Z,3.80
2023-03-26T17:42:29.291Z,3.20
2023-03-26T17:45:02.261Z,3.30
2023-03-26T17:47:38.221Z,3.70
2023-03-26T17:50:18.618Z,4.40
2023-03-26T17:52:58.640Z,4.60
2023-03-26T17:55:34.279Z,4.00
2023-03-26T17:58:06.669Z,4.10
2023-03-26T18:00:42.477Z,3.70
2023-03-26T18:03:21.214Z,2.70
2023-03-26T18:05:57.338Z,2.70
2023-03-26T18:08:51.731Z,3.00
2023-03-26T18:11:51.195Z,3.30
2023-03-26T18:14:57.024Z,2.90
2023-03-26T18:17:33.677Z,2.90
2023-03-26T18:20:09.957Z,3.00
2023-03-26T18:22:41.092Z,2.70
2023-03-26T18:25:26.155Z,2.70
2023-03-26T18:27:57.281Z,2.60
2023-03-26T18:30:27.963Z,2.20
2023-03-26T18:33:04.038Z,2.50
2023-03-26T18:35:43.719Z,1.80
2023-03-26T18:38:36.257Z,2.10
2023-03-26T18:41:21.121Z,1.90
2023-03-26T18:43:51.625Z,3.80
2023-03-26T18:46:25.114Z,5.80
2023-03-26T18:48:57.026Z,7.40
2023-03-26T18:51:32.063Z,8.80
2023-03-26T18:54:04.912Z,7.10
2023-03-26T18:56:38.858Z,5.00
2023-03-26T18:59:28.242Z,3.40
2023-03-26T19:02:00.077Z,2.00
2023-03-26T19:04:35.393Z,1.60
2023-03-26T19:07:11.727Z,1.40
2023-03-26T19:09:45.555Z,1.50
2023-03-26T19:12:22.903Z,1.50
2023-03-26T19:15:05.078Z,1.20
2023-03-26T19:17:41.599Z,1.20
2023-03-26T19:20:18.391Z,1.60
2023-03-26T19:22:51.331Z,2.20
2023-03-26T19:25:26.577Z,2.00
2023-03-26T19:27:57.123Z,2.30
2023-03-26T19:30:32.848Z,2.40
2023-03-26T19:33:12.904Z,2.60
2023-03-26T19:35:46.394Z,2.30
2023-03-26T19:38:24.351Z,2.20
2023-03-26T19:40:58.111Z,1.80
2023-03-26T19:43:29.710Z,2.20
2023-03-26T19:46:04.842Z,2.50
2023-03-26T19:48:46.113Z,2.50
2023-03-26T19:51:27.914Z,2.70
2023-03-26T19:54:04.402Z,2.60
2023-03-26T19:56:35.531Z,2.70
2023-03-26T19:59:09.091Z,2.70
2023-03-26T20:01:41.796Z,3.00
2023-03-26T20:04:27.594Z,3.00
2023-03-26T20:07:01.528Z,3.10
2023-03-26T20:09:31.915Z,3.00
2023-03-26T20:12:03.363Z,2.90
2023-03-26T20:14:34.202Z,2.80
2023-03-26T20:17:05.459Z,2.80
2023-03-26T20:19:37.392Z,2.50
2023-03-26T20:22:12.690Z,2.50
2023-03-26T20:24:45.723Z,2.50
2023-03-26T20:27:16.466Z,2.40
2023-03-26T20:29:48.238Z,2.50
2023-03-26T20:32:26.414Z,2.40
2023-03-26T20:34:57.760Z,2.40
2023-03-26T20:37:30.343Z,2.90
2023-03-26T20:40:02.289Z,2.90
2023-03-26T20:42:36.018Z,2.60
2023-03-26T20:45:18.061Z,2.60
2023-03-26T20:47:50.707Z,2.90
2023-03-26T20:50:26.828Z,3.40
2023-03-26T20:52:59.890Z,2.80
2023-03-26T20:55:30.680Z,3.60
2023-03-26T20:58:01.118Z,2.80
2023-03-26T21:00:34.810Z,3.00
2023-03-26T21:03:07.498Z,2.80
2023-03-26T21:05:39.042Z,3.40
2023-03-26T21:08:15.088Z,2.60
2023-03-26T21:10:46.250Z,2.70
2023-03-26T21:13:29.168Z,2.90
2023-03-26T21:16:02.375Z,2.90
2023-03-26T21:18:34.072Z,2.70
2023-03-26T21:21:21.144Z,2.80
2023-03-26T21:23:59.440Z,2.50
2023-03-26T21:26:41.791Z,2.40
2023-03-26T21:29:13.497Z,3.20
2023-03-26T21:31:45.101Z,3.40
2023-03-26T21:34:17.112Z,3.40
2023-03-26T21:36:49.432Z,3.10
2023-03-26T21:39:22.873Z,4.00
2023-03-26T21:42:04.753Z,3.70
2023-03-26T21:44:36.912Z,3.70
2023-03-26T21:47:09.961Z,3.60
2023-03-26T21:49:41.411Z,4.00
2023-03-26T21:52:15.391Z,3.70
2023-03-26T21:54:46.856Z,3.60
2023-03-26T21:57:37.556Z,3.60
2023-03-26T22:00:16.368Z,4.10
2023-03-26T22:03:00.510Z,4.30
2023-03-26T22:05:38.802Z,4.30
2023-03-26T22:08:16.143Z,3.70
2023-03-26T22:10:47.517Z,4.10
2023-03-26T22:13:17.792Z,4.80
2023-03-26T22:15:48.153Z,4.50
2023-03-26T22:18:21.556Z,4.10
2023-03-26T22:20:51.974Z,4.00
2023-03-26T22:23:22.334Z,4.20
2023-03-26T22:25:52.708Z,4.20
2023-03-26T22:28:23.120Z,3.80
2023-03-26T22:30:53.794Z,4.80
2023-03-26T22:33:24.176Z,4.50
2023-03-26T22:35:56.370Z,5.60
2023-03-26T22:38:26.692Z,4.60
2023-03-26T22:41:00.216Z,5.00
2023-03-26T22:43:31.590Z,5.30
2023-03-26T22:46:02.573Z,5.50
2023-03-26T22:48:33.661Z,4.90
2023-03-26T22:51:06.386Z,4.60
2023-03-26T22:53:37.311Z,5.20
2023-03-26T22:56:09.288Z,4.60
2023-03-26T22:58:39.969Z,4.10
2023-03-26T23:01:13.464Z,4.30
2023-03-26T23:03:44.815Z,3.80
2023-03-26T23:06:16.176Z,3.90
2023-03-26T23:08:46.747Z,4.30
2023-03-26T23:11:18.632Z,3.90
2023-03-26T23:13:49.534Z,4.40
2023-03-26T23:16:21.536Z,4.10
2023-03-26T23:18:52.057Z,3.60
2023-03-26T23:21:23.855Z,3.50
2023-03-26T23:23:54.155Z,3.00
2023-03-26T23:26:25.191Z,2.70
2023-03-26T23:28:55.500Z,3.20
2023-03-26T23:31:27.473Z,3.10
2023-03-26T23:33:58.050Z,3.40
2023-03-26T23:36:28.857Z,3.50
2023-03-26T23:38:59.424Z,2.70
2023-03-26T23:41:29.839Z,3.20
2023-03-26T23:44:00.166Z,4.70
2023-03-26T23:46:33.917Z,3.00
2023-03-26T23:49:04.507Z,2.80
2023-03-26T23:51:36.075Z,3.50
2023-03-26T23:54:07.651Z,3.30
2023-03-26T23:56:38.154Z,3.00
2023-03-26T23:59:08.541Z,4.00
